sensor_id;sensor_type;location;lat;lon;timestamp;P1;durP1;ratioP1;P2;durP2;ratioP2
37789;SDS011;23628;51.434;6.988;2022-09-20T03:47:33;4.45;;;2.50;;
37789;SDS011;23628;51.434;6.988;2022-09-20T03:57:31;7.73;;;3.50;;
37789;SDS011;23628;51.434;6.988;2022-09-20T04:03:16;5.85;;;3.10;;
37789;SDS011;23628;51.434;6.988;2022-09-20T04:14:31;9.05;;;3.25;;
37789;SDS011;23628;51.434;6.988;2022-09-20T04:17:10;5.38;;;3.30;;
37789;SDS011;23628;51.434;6.988;2022-09-20T04:19:46;6.30;;;3.53;;
37789;SDS011;23628;51.434;6.988;2022-09-20T04:25:04;8.63;;;3.70;;
37789;SDS011;23628;51.434;6.988;2022-09-20T04:27:42;6.40;;;3.38;;
37789;SDS011;23628;51.434;6.988;2022-09-20T04:30:21;3.97;;;3.25;;
37789;SDS011;23628;51.434;6.988;2022-09-20T04:33:02;6.80;;;3.65;;
37789;SDS011;23628;51.434;6.988;2022-09-20T04:35:44;6.13;;;4.00;;
37789;SDS011;23628;51.434;6.988;2022-09-20T04:38:56;6.75;;;3.85;;
37789;SDS011;23628;51.434;6.988;2022-09-20T04:47:18;8.60;;;3.90;;
37789;SDS011;23628;51.434;6.988;2022-09-20T05:01:25;5.82;;;4.07;;
37789;SDS011;23628;51.434;6.988;2022-09-20T05:04:11;6.13;;;3.70;;
37789;SDS011;23628;51.434;6.988;2022-09-20T05:20:18;12.27;;;3.80;;
37789;SDS011;23628;51.434;6.988;2022-09-20T05:58:30;6.78;;;3.47;;
37789;SDS011;23628;51.434;6.988;2022-09-20T06:03:59;6.00;;;3.78;;
37789;SDS011;23628;51.434;6.988;2022-09-20T06:17:17;5.22;;;3.60;;
37789;SDS011;23628;51.434;6.988;2022-09-20T06:22:59;9.35;;;4.40;;
37789;SDS011;23628;51.434;6.988;2022-09-20T06:25:43;8.52;;;3.97;;
37789;SDS011;23628;51.434;6.988;2022-09-20T06:28:27;10.45;;;4.03;;
37789;SDS011;23628;51.434;6.988;2022-09-20T06:31:05;7.90;;;4.20;;
37789;SDS011;23628;51.434;6.988;2022-09-20T06:38:57;8.85;;;3.92;;
37789;SDS011;23628;51.434;6.988;2022-09-20T06:41:54;10.88;;;4.60;;
37789;SDS011;23628;51.434;6.988;2022-09-20T06:44:23;8.80;;;4.57;;
37789;SDS011;23628;51.434;6.988;2022-09-20T06:46:56;12.75;;;4.10;;
37789;SDS011;23628;51.434;6.988;2022-09-20T06:49:27;10.57;;;5.15;;
37789;SDS011;23628;51.434;6.988;2022-09-20T06:51:54;8.88;;;4.30;;
37789;SDS011;23628;51.434;6.988;2022-09-20T06:54:28;9.38;;;4.35;;
37789;SDS011;23628;51.434;6.988;2022-09-20T06:57:05;11.32;;;4.45;;
37789;SDS011;23628;51.434;6.988;2022-09-20T06:59:33;17.40;;;4.57;;
37789;SDS011;23628;51.434;6.988;2022-09-20T07:02:00;8.30;;;4.53;;
37789;SDS011;23628;51.434;6.988;2022-09-20T07:04:36;11.15;;;4.72;;
37789;SDS011;23628;51.434;6.988;2022-09-20T07:07:04;8.38;;;4.68;;
37789;SDS011;23628;51.434;6.988;2022-09-20T07:09:34;10.70;;;4.22;;
37789;SDS011;23628;51.434;6.988;2022-09-20T07:12:02;14.98;;;5.25;;
37789;SDS011;23628;51.434;6.988;2022-09-20T07:14:36;12.23;;;4.78;;
37789;SDS011;23628;51.434;6.988;2022-09-20T07:17:10;9.30;;;4.20;;
37789;SDS011;23628;51.434;6.988;2022-09-20T07:19:39;17.42;;;5.38;;
37789;SDS011;23628;51.434;6.988;2022-09-20T07:22:06;7.65;;;4.63;;
37789;SDS011;23628;51.434;6.988;2022-09-20T07:27:10;12.80;;;5.35;;
37789;SDS011;23628;51.434;6.988;2022-09-20T07:29:37;14.40;;;4.70;;
37789;SDS011;23628;51.434;6.988;2022-09-20T07:32:07;13.43;;;4.57;;
37789;SDS011;23628;51.434;6.988;2022-09-20T07:34:34;12.20;;;4.72;;
37789;SDS011;23628;51.434;6.988;2022-09-20T07:37:09;8.45;;;3.80;;
37789;SDS011;23628;51.434;6.988;2022-09-20T07:39:37;15.45;;;4.97;;
37789;SDS011;23628;51.434;6.988;2022-09-20T07:42:11;9.00;;;3.92;;
37789;SDS011;23628;51.434;6.988;2022-09-20T07:44:38;8.75;;;3.65;;
37789;SDS011;23628;51.434;6.988;2022-09-20T07:47:14;10.40;;;4.27;;
37789;SDS011;23628;51.434;6.988;2022-09-20T07:49:41;5.95;;;3.00;;
37789;SDS011;23628;51.434;6.988;2022-09-20T07:52:08;9.55;;;3.47;;
37789;SDS011;23628;51.434;6.988;2022-09-20T07:54:36;6.80;;;2.80;;
37789;SDS011;23628;51.434;6.988;2022-09-20T07:57:05;7.63;;;3.45;;
37789;SDS011;23628;51.434;6.988;2022-09-20T07:59:31;5.97;;;2.80;;
37789;SDS011;23628;51.434;6.988;2022-09-20T08:01:58;7.47;;;2.17;;
37789;SDS011;23628;51.434;6.988;2022-09-20T08:04:25;10.35;;;2.80;;
37789;SDS011;23628;51.434;6.988;2022-09-20T08:06:52;6.85;;;2.58;;
37789;SDS011;23628;51.434;6.988;2022-09-20T08:09:19;7.45;;;2.53;;
37789;SDS011;23628;51.434;6.988;2022-09-20T08:11:46;7.53;;;3.63;;
37789;SDS011;23628;51.434;6.988;2022-09-20T08:14:14;5.00;;;2.33;;
37789;SDS011;23628;51.434;6.988;2022-09-20T08:16:43;4.65;;;2.40;;
37789;SDS011;23628;51.434;6.988;2022-09-20T08:19:13;5.47;;;2.10;;
37789;SDS011;23628;51.434;6.988;2022-09-20T08:21:44;7.97;;;2.40;;
37789;SDS011;23628;51.434;6.988;2022-09-20T08:24:11;3.58;;;1.83;;
37789;SDS011;23628;51.434;6.988;2022-09-20T08:26:38;4.20;;;1.45;;
37789;SDS011;23628;51.434;6.988;2022-09-20T08:29:17;4.15;;;1.73;;
37789;SDS011;23628;51.434;6.988;2022-09-20T08:34:14;4.95;;;2.13;;
37789;SDS011;23628;51.434;6.988;2022-09-20T08:36:44;9.10;;;3.65;;
37789;SDS011;23628;51.434;6.988;2022-09-20T08:39:13;7.00;;;4.18;;
37789;SDS011;23628;51.434;6.988;2022-09-20T08:45:14;6.38;;;3.95;;
37789;SDS011;23628;51.434;6.988;2022-09-20T08:48:01;8.60;;;5.20;;
37789;SDS011;23628;51.434;6.988;2022-09-20T08:50:31;10.98;;;5.68;;
37789;SDS011;23628;51.434;6.988;2022-09-20T08:52:59;9.38;;;4.30;;
37789;SDS011;23628;51.434;6.988;2022-09-20T08:55:31;6.00;;;2.92;;
37789;SDS011;23628;51.434;6.988;2022-09-20T08:58:02;4.28;;;2.47;;
37789;SDS011;23628;51.434;6.988;2022-09-20T09:00:34;4.43;;;2.38;;
37789;SDS011;23628;51.434;6.988;2022-09-20T09:03:06;3.90;;;1.90;;
37789;SDS011;23628;51.434;6.988;2022-09-20T09:05:42;4.25;;;2.05;;
37789;SDS011;23628;51.434;6.988;2022-09-20T09:08:14;6.47;;;2.63;;
37789;SDS011;23628;51.434;6.988;2022-09-20T09:10:45;7.10;;;2.17;;
37789;SDS011;23628;51.434;6.988;2022-09-20T09:13:19;5.65;;;2.20;;
37789;SDS011;23628;51.434;6.988;2022-09-20T09:15:54;3.70;;;1.55;;
37789;SDS011;23628;51.434;6.988;2022-09-20T09:20:58;5.97;;;2.83;;
37789;SDS011;23628;51.434;6.988;2022-09-20T09:23:35;7.03;;;2.38;;
37789;SDS011;23628;51.434;6.988;2022-09-20T09:26:13;4.10;;;1.98;;
37789;SDS011;23628;51.434;6.988;2022-09-20T09:28:42;5.72;;;2.30;;
37789;SDS011;23628;51.434;6.988;2022-09-20T09:31:25;6.40;;;1.92;;
37789;SDS011;23628;51.434;6.988;2022-09-20T09:33:52;5.05;;;1.73;;
37789;SDS011;23628;51.434;6.988;2022-09-20T09:36:22;6.32;;;1.60;;
37789;SDS011;23628;51.434;6.988;2022-09-20T09:39:21;3.97;;;1.83;;
37789;SDS011;23628;51.434;6.988;2022-09-20T09:41:58;8.70;;;1.97;;
37789;SDS011;23628;51.434;6.988;2022-09-20T09:44:30;8.25;;;1.45;;
37789;SDS011;23628;51.434;6.988;2022-09-20T09:49:30;3.95;;;1.38;;
37789;SDS011;23628;51.434;6.988;2022-09-20T09:52:15;4.38;;;1.40;;
37789;SDS011;23628;51.434;6.988;2022-09-20T09:54:53;3.35;;;1.00;;
37789;SDS011;23628;51.434;6.988;2022-09-20T10:00:22;4.00;;;1.48;;
37789;SDS011;23628;51.434;6.988;2022-09-20T10:10:46;6.28;;;1.25;;
37789;SDS011;23628;51.434;6.988;2022-09-20T10:13:31;3.30;;;0.93;;
37789;SDS011;23628;51.434;6.988;2022-09-20T10:21:25;6.25;;;1.30;;
37789;SDS011;23628;51.434;6.988;2022-09-20T10:29:32;3.25;;;1.20;;
37789;SDS011;23628;51.434;6.988;2022-09-20T10:35:14;4.88;;;2.78;;
37789;SDS011;23628;51.434;6.988;2022-09-20T10:46:31;4.03;;;1.00;;
37789;SDS011;23628;51.434;6.988;2022-09-20T10:49:25;9.57;;;1.95;;
37789;SDS011;23628;51.434;6.988;2022-09-20T10:54:40;5.73;;;1.60;;
37789;SDS011;23628;51.434;6.988;2022-09-20T11:00:27;3.42;;;1.10;;
37789;SDS011;23628;51.434;6.988;2022-09-20T11:03:33;2.78;;;0.80;;
37789;SDS011;23628;51.434;6.988;2022-09-20T11:08:36;2.65;;;1.40;;
37789;SDS011;23628;51.434;6.988;2022-09-20T11:11:18;2.78;;;1.20;;
37789;SDS011;23628;51.434;6.988;2022-09-20T11:14:00;4.93;;;2.53;;
37789;SDS011;23628;51.434;6.988;2022-09-20T11:21:54;2.35;;;1.58;;
37789;SDS011;23628;51.434;6.988;2022-09-20T11:25:13;2.42;;;1.05;;
37789;SDS011;23628;51.434;6.988;2022-09-20T11:27:28;3.60;;;1.20;;
37789;SDS011;23628;51.434;6.988;2022-09-20T11:30:20;2.03;;;0.88;;
37789;SDS011;23628;51.434;6.988;2022-09-20T11:35:49;2.45;;;1.02;;
37789;SDS011;23628;51.434;6.988;2022-09-20T11:38:31;1.17;;;0.80;;
37789;SDS011;23628;51.434;6.988;2022-09-20T11:41:10;2.33;;;0.90;;
37789;SDS011;23628;51.434;6.988;2022-09-20T11:43:42;4.53;;;1.20;;
37789;SDS011;23628;51.434;6.988;2022-09-20T11:46:12;3.47;;;0.98;;
37789;SDS011;23628;51.434;6.988;2022-09-20T11:48:46;4.00;;;0.95;;
37789;SDS011;23628;51.434;6.988;2022-09-20T11:57:39;2.13;;;1.05;;
37789;SDS011;23628;51.434;6.988;2022-09-20T12:00:06;3.85;;;1.20;;
